^^
Station Historical Data
 
Daily Summary for September 18, 2014 Units:  English    Metric   Both
« Previous Day
Next Day »
Daily Weekly Monthly Yearly Custom
  Current: High: Low: Average:
Temperature: 64.6 °F 75.7 °F 48.2 °F 61.3 °F
Dew Point: 51.7 °F 57.9 °F 47.2 °F 51.8 °F
Humidity: 63% 98% 44% 75%
Wind Speed: 0.0mph 11.5mph 0.0mph 5.3mph
Wind Gust: 0.0mph 11.5mph - -
WindCalm - - WSW
Pressure: 29.99 in 29.99 in 29.91 in -
Precipitation: 0.00 in      
Historical Graphs
 
 
Tabular Data for September 18, 2014
Time Temperature Dew Point Pressure Wind Wind Speed Wind Gust Humidity Rainfall Rate (Hourly)
00:01 51.2 °F 49.5 °F 29.93 in Calm     94% 0.00 in
00:06 51.1 °F 49.4 °F 29.93 in Calm     94% 0.00 in
00:11 51.0 °F 49.3 °F 29.92 in Calm     94% 0.00 in
00:16 50.9 °F 49.5 °F 29.92 in Calm     95% 0.00 in
00:21 50.9 °F 49.5 °F 29.92 in Calm     95% 0.00 in
00:26 50.8 °F 49.4 °F 29.92 in Calm     95% 0.00 in
00:31 50.6 °F 49.2 °F 29.92 in Calm     95% 0.00 in
00:36 50.5 °F 49.1 °F 29.92 in Calm     95% 0.00 in
00:41 50.6 °F 49.2 °F 29.92 in Calm     95% 0.00 in
00:46 50.6 °F 49.2 °F 29.92 in Calm     95% 0.00 in
00:51 50.4 °F 49.0 °F 29.92 in Calm     95% 0.00 in
00:56 50.3 °F 48.9 °F 29.92 in Calm     95% 0.00 in
00:59 50.3 °F 49.2 °F 29.92 in Calm     96% 0.00 in
01:04 50.2 °F 49.1 °F 29.92 in Calm     96% 0.00 in
01:09 50.2 °F 49.1 °F 29.92 in Calm     96% 0.00 in
01:14 50.1 °F 49.0 °F 29.92 in Calm     96% 0.00 in
01:19 50.0 °F 48.9 °F 29.92 in Calm     96% 0.00 in
01:24 49.9 °F 48.8 °F 29.92 in Calm     96% 0.00 in
01:29 49.9 °F 48.8 °F 29.92 in Calm     96% 0.00 in
01:34 49.7 °F 48.6 °F 29.92 in Calm     96% 0.00 in
01:39 49.6 °F 48.5 °F 29.92 in Calm     96% 0.00 in
01:44 49.5 °F 48.4 °F 29.92 in Calm     96% 0.00 in
01:49 49.5 °F 48.4 °F 29.91 in Calm     96% 0.00 in
01:54 49.3 °F 48.2 °F 29.91 in Calm     96% 0.00 in
01:59 49.2 °F 48.1 °F 29.91 in Calm     96% 0.00 in
02:04 49.1 °F 48.0 °F 29.92 in Calm     96% 0.00 in
02:09 48.9 °F 47.8 °F 29.92 in Calm     96% 0.00 in
02:14 48.9 °F 47.8 °F 29.92 in Calm     96% 0.00 in
02:19 48.9 °F 47.8 °F 29.92 in Calm     96% 0.00 in
02:24 48.8 °F 47.7 °F 29.92 in Calm     96% 0.00 in
02:29 48.8 °F 47.7 °F 29.92 in Calm     96% 0.00 in
02:34 48.8 °F 47.7 °F 29.91 in Calm     96% 0.00 in
02:39 48.8 °F 48.0 °F 29.91 in Calm     97% 0.00 in
02:44 48.8 °F 48.0 °F 29.91 in Calm     97% 0.00 in
02:49 48.8 °F 48.0 °F 29.91 in Calm     97% 0.00 in
02:54 48.7 °F 47.6 °F 29.91 in Calm     96% 0.00 in
02:59 48.6 °F 47.5 °F 29.91 in Calm     96% 0.00 in
03:04 48.6 °F 47.5 °F 29.91 in Calm     96% 0.00 in
03:09 48.5 °F 47.4 °F 29.91 in Calm     96% 0.00 in
03:14 48.3 °F 47.2 °F 29.91 in Calm     96% 0.00 in
03:19 48.3 °F 47.5 °F 29.91 in Calm     97% 0.00 in
03:24 48.2 °F 47.4 °F 29.91 in Calm     97% 0.00 in
03:29 48.2 °F 47.4 °F 29.91 in Calm     97% 0.00 in
03:34 48.3 °F 47.5 °F 29.91 in Calm     97% 0.00 in
03:39 48.5 °F 47.7 °F 29.91 in Calm     97% 0.00 in
03:45 48.6 °F 47.8 °F 29.91 in Calm     97% 0.00 in
03:48 48.8 °F 48.0 °F 29.91 in Calm     97% 0.00 in
03:53 49.1 °F 48.3 °F 29.91 in Calm     97% 0.00 in
03:58 49.2 °F 48.7 °F 29.91 in Calm     98% 0.00 in
04:03 49.4 °F 48.9 °F 29.91 in Calm     98% 0.00 in
04:08 49.5 °F 48.7 °F 29.91 in Calm     97% 0.00 in
04:13 49.6 °F 48.8 °F 29.91 in Calm     97% 0.00 in
04:18 49.6 °F 48.8 °F 29.91 in Calm     97% 0.00 in
04:23 49.7 °F 48.9 °F 29.91 in Calm     97% 0.00 in
04:28 50.0 °F 49.5 °F 29.92 in Calm     98% 0.00 in
04:33 50.1 °F 49.6 °F 29.92 in Calm     98% 0.00 in
04:38 50.1 °F 49.6 °F 29.92 in Calm     98% 0.00 in
04:43 50.2 °F 49.7 °F 29.92 in Calm     98% 0.00 in
04:48 50.2 °F 49.7 °F 29.93 in Calm     98% 0.00 in
04:53 50.3 °F 49.8 °F 29.93 in Calm     98% 0.00 in
04:58 50.3 °F 49.8 °F 29.93 in South 1.0 mph 1.0 mph 98% 0.00 in
05:03 50.3 °F 49.8 °F 29.93 in Calm     98% 0.00 in
05:08 50.3 °F 49.5 °F 29.93 in Calm     97% 0.00 in
05:13 50.3 °F 49.5 °F 29.93 in Calm     97% 0.00 in
05:18 50.3 °F 49.5 °F 29.93 in Calm     97% 0.00 in
05:23 50.2 °F 49.4 °F 29.93 in Calm     97% 0.00 in
05:28 50.3 °F 49.5 °F 29.93 in Calm     97% 0.00 in
05:33 50.4 °F 49.9 °F 29.93 in Calm     98% 0.00 in
05:38 50.4 °F 49.9 °F 29.93 in Calm     98% 0.00 in
05:43 50.5 °F 50.0 °F 29.93 in Calm     98% 0.00 in
05:48 50.4 °F 49.9 °F 29.93 in Calm     98% 0.00 in
05:53 50.4 °F 49.9 °F 29.93 in Calm     98% 0.00 in
05:58 50.5 °F 50.0 °F 29.93 in Calm     98% 0.00 in
06:03 50.5 °F 50.0 °F 29.93 in Calm     98% 0.00 in
06:08 50.5 °F 50.0 °F 29.93 in Calm     98% 0.00 in
06:13 50.6 °F 50.1 °F 29.93 in Calm     98% 0.00 in
06:18 50.7 °F 50.2 °F 29.93 in South 1.2 mph   98% 0.00 in
06:23 50.8 °F 50.3 °F 29.93 in Calm     98% 0.00 in
06:25 50.7 °F 50.2 °F 29.93 in Calm     98% 0.00 in
06:30 50.7 °F 50.2 °F 29.94 in Calm     98% 0.00 in
06:35 50.8 °F 50.3 °F 29.94 in Calm     98% 0.00 in
06:40 50.8 °F 50.3 °F 29.94 in Calm     98% 0.00 in
06:45 50.8 °F 50.3 °F 29.94 in Calm     98% 0.00 in
06:50 51.0 °F 50.5 °F 29.94 in Calm     98% 0.00 in
06:54 51.0 °F 50.5 °F 29.94 in Calm     98% 0.00 in
06:59 51.0 °F 50.5 °F 29.94 in Calm     98% 0.00 in
07:04 51.0 °F 50.5 °F 29.95 in Calm     98% 0.00 in
07:09 50.9 °F 50.1 °F 29.95 in Calm     97% 0.00 in
07:14 50.9 °F 50.1 °F 29.95 in Calm     97% 0.00 in
07:19 51.0 °F 50.5 °F 29.95 in Calm     98% 0.00 in
07:24 51.1 °F 50.6 °F 29.95 in Calm     98% 0.00 in
07:29 51.2 °F 50.7 °F 29.95 in Calm     98% 0.00 in
07:34 51.3 °F 50.8 °F 29.95 in Calm     98% 0.00 in
07:39 51.4 °F 50.9 °F 29.95 in Calm     98% 0.00 in
07:44 51.6 °F 51.1 °F 29.95 in Calm     98% 0.00 in
07:49 51.7 °F 51.2 °F 29.95 in Calm     98% 0.00 in
07:54 51.8 °F 51.3 °F 29.96 in Calm     98% 0.00 in
07:59 51.9 °F 51.4 °F 29.95 in Calm     98% 0.00 in
08:04 52.0 °F 51.5 °F 29.95 in Calm     98% 0.00 in
08:09 52.1 °F 51.6 °F 29.95 in Calm     98% 0.00 in
08:14 52.4 °F 51.9 °F 29.95 in Calm     98% 0.00 in
08:19 52.7 °F 52.2 °F 29.95 in Calm     98% 0.00 in
08:24 53.0 °F 52.5 °F 29.95 in Calm     98% 0.00 in
08:29 53.4 °F 52.8 °F 29.95 in South 1.0 mph   98% 0.00 in
08:34 53.6 °F 52.8 °F 29.95 in Calm     97% 0.00 in
08:39 54.1 °F 53.3 °F 29.96 in Calm     97% 0.00 in
08:44 54.4 °F 53.6 °F 29.96 in Calm     97% 0.00 in
08:49 54.7 °F 53.6 °F 29.96 in Calm     96% 0.00 in
08:54 55.0 °F 53.6 °F 29.96 in Calm     95% 0.00 in
08:59 55.4 °F 54.0 °F 29.96 in South 1.2 mph 1.2 mph 95% 0.00 in
09:04 56.0 °F 54.6 °F 29.96 in Calm     95% 0.00 in
09:09 56.6 °F 54.9 °F 29.96 in Calm     94% 0.00 in
09:14 57.3 °F 55.0 °F 29.96 in Calm     92% 0.00 in
09:19 58.1 °F 55.5 °F 29.96 in Calm     91% 0.00 in
09:24 59.0 °F 55.8 °F 29.97 in South 1.2 mph 1.2 mph 89% 0.00 in
09:29 59.6 °F 55.7 °F 29.97 in South 1.2 mph 1.2 mph 87% 0.00 in
09:34 60.4 °F 56.5 °F 29.97 in South 1.2 mph   87% 0.00 in
09:39 61.1 °F 56.9 °F 29.97 in South 1.2 mph 1.2 mph 86% 0.00 in
09:44 61.8 °F 56.2 °F 29.97 in South 2.3 mph 2.3 mph 82% 0.00 in
09:49 62.2 °F 56.6 °F 29.97 in South 1.2 mph 1.2 mph 82% 0.00 in
09:54 62.5 °F 56.6 °F 29.97 in South 1.2 mph 1.2 mph 81% 0.00 in
09:59 62.7 °F 56.1 °F 29.97 in South 2.3 mph   79% 0.00 in
10:04 63.1 °F 56.5 °F 29.96 in South 2.3 mph   79% 0.00 in
10:09 63.4 °F 56.4 °F 29.97 in South 3.5 mph 3.5 mph 78% 0.00 in
10:14 63.6 °F 56.3 °F 29.97 in South 1.2 mph 1.2 mph 77% 0.00 in
10:19 64.0 °F 57.4 °F 29.97 in South 2.3 mph 2.3 mph 79% 0.00 in
10:24 64.5 °F 57.1 °F 29.97 in NNW 4.0 mph 4.0 mph 77% 0.00 in
10:29 65.1 °F 57.3 °F 29.97 in NW 5.0 mph 5.0 mph 76% 0.00 in
10:34 65.3 °F 57.2 °F 29.97 in NNW 3.5 mph 3.5 mph 75% 0.00 in
10:39 65.4 °F 57.6 °F 29.98 in NNW 2.3 mph 2.3 mph 76% 0.00 in
10:44 65.6 °F 57.1 °F 29.97 in NNW 4.6 mph 4.6 mph 74% 0.00 in
10:49 66.1 °F 57.9 °F 29.97 in NNW 1.2 mph 1.2 mph 75% 0.00 in
10:54 66.5 °F 57.6 °F 29.97 in NNW 1.2 mph   73% 0.00 in
10:59 66.8 °F 56.7 °F 29.97 in North 5.8 mph 5.8 mph 70% 0.00 in
11:04 67.2 °F 56.3 °F 29.97 in NNE 5.8 mph 5.8 mph 68% 0.00 in
11:09 67.7 °F 55.1 °F 29.97 in North 4.6 mph 4.6 mph 64% 0.00 in
11:14 68.2 °F 56.0 °F 29.97 in NNW 3.5 mph 3.5 mph 65% 0.00 in
11:19 68.6 °F 55.9 °F 29.97 in NNW 6.0 mph 6.0 mph 64% 0.00 in
11:24 69.1 °F 55.5 °F 29.97 in NNE 8.1 mph 8.1 mph 62% 0.00 in
11:29 69.6 °F 55.6 °F 29.97 in NNE 5.8 mph 5.8 mph 61% 0.00 in
11:34 69.9 °F 54.9 °F 29.97 in NNW 5.8 mph 5.8 mph 59% 0.00 in
11:39 70.2 °F 55.7 °F 29.97 in North 6.9 mph 6.9 mph 60% 0.00 in
11:44 70.5 °F 52.5 °F 29.97 in NNE 6.9 mph 6.9 mph 53% 0.00 in
11:49 71.0 °F 54.0 °F 29.97 in NNE 4.6 mph 4.6 mph 55% 0.00 in
11:54 71.3 °F 54.3 °F 29.97 in NNE 3.5 mph 3.5 mph 55% 0.00 in
11:59 71.5 °F 54.5 °F 29.97 in NNE 4.0 mph 4.0 mph 55% 0.00 in
12:04 71.8 °F 54.3 °F 29.97 in North 3.5 mph 3.5 mph 54% 0.00 in
12:09 71.9 °F 54.3 °F 29.97 in ENE 6.9 mph 6.9 mph 54% 0.00 in
12:14 72.2 °F 54.1 °F 29.97 in NE 2.3 mph 2.3 mph 53% 0.00 in
12:19 72.5 °F 54.4 °F 29.97 in NE 4.6 mph 4.6 mph 53% 0.00 in
12:24 72.7 °F 52.4 °F 29.97 in NNW 6.9 mph 7.4 mph 49% 0.00 in
12:30 72.7 °F 53.0 °F 29.97 in North 5.8 mph 5.8 mph 50% 0.00 in
12:35 72.7 °F 52.4 °F 29.96 in NNE 8.1 mph 8.1 mph 49% 0.00 in
12:40 72.7 °F 52.4 °F 29.97 in NNE 6.9 mph 6.9 mph 49% 0.00 in
12:45 72.7 °F 51.9 °F 29.96 in NNE 1.2 mph 1.2 mph 48% 0.00 in
12:50 72.9 °F 52.1 °F 29.97 in ENE 6.9 mph 6.9 mph 48% 0.00 in
12:55 73.1 °F 52.2 °F 29.97 in NNE 10.4 mph 10.4 mph 48% 0.00 in
13:00 73.1 °F 52.8 °F 29.97 in NNE 1.2 mph 1.4 mph 49% 0.00 in
13:05 73.3 °F 53.0 °F 29.97 in NNW 6.9 mph 6.9 mph 49% 0.00 in
13:10 73.3 °F 53.0 °F 29.97 in NW 6.9 mph 6.9 mph 49% 0.00 in
13:15 73.2 °F 53.4 °F 29.97 in NW 3.5 mph 3.5 mph 50% 0.00 in
13:20 73.1 °F 53.4 °F 29.97 in NW 9.2 mph 9.2 mph 50% 0.00 in
13:25 73.4 °F 54.2 °F 29.96 in NW 8.1 mph 8.1 mph 51% 0.00 in
13:30 73.7 °F 53.9 °F 29.97 in NNW 5.8 mph 6.1 mph 50% 0.00 in
13:35 73.6 °F 53.8 °F 29.96 in NNW 8.0 mph 8.0 mph 50% 0.00 in
13:39 73.5 °F 54.8 °F 29.96 in North 3.0 mph 3.9 mph 52% 0.00 in
13:44 73.7 °F 54.4 °F 29.96 in NNW 8.1 mph 8.1 mph 51% 0.00 in
13:49 73.6 °F 54.9 °F 29.96 in NW 9.2 mph 9.2 mph 52% 0.00 in
13:54 73.4 °F 54.7 °F 29.96 in NW 5.8 mph 5.8 mph 52% 0.00 in
13:59 73.2 °F 55.0 °F 29.95 in SW 3.5 mph 3.5 mph 53% 0.00 in
14:04 73.7 °F 55.5 °F 29.95 in North 10.4 mph 10.4 mph 53% 0.00 in
14:09 73.9 °F 54.1 °F 29.96 in NE 9.2 mph 9.2 mph 50% 0.00 in
14:14 73.2 °F 53.4 °F 29.96 in North 4.6 mph 4.6 mph 50% 0.00 in
14:19 73.1 °F 55.5 °F 29.95 in NNE 2.3 mph 2.3 mph 54% 0.00 in
14:24 73.8 °F 55.1 °F 29.95 in NNE 4.6 mph 4.6 mph 52% 0.00 in
14:26 74.0 °F 54.2 °F 29.95 in NNW 8.1 mph 8.1 mph 50% 0.00 in
14:31 74.6 °F 54.7 °F 29.95 in West 4.6 mph 4.6 mph 50% 0.00 in
14:36 75.2 °F 53.6 °F 29.95 in NNE 9.2 mph 9.2 mph 47% 0.00 in
14:41 75.3 °F 53.7 °F 29.95 in NW 9.2 mph 9.2 mph 47% 0.00 in
14:46 75.3 °F 53.7 °F 29.95 in North 6.9 mph 6.9 mph 47% 0.00 in
14:51 75.2 °F 53.6 °F 29.96 in WNW 11.5 mph 11.5 mph 47% 0.00 in
14:56 74.9 °F 53.9 °F 29.96 in NW 9.2 mph 9.2 mph 48% 0.00 in
15:01 75.1 °F 53.5 °F 29.96 in NW 8.1 mph 8.1 mph 47% 0.00 in
15:06 75.0 °F 51.6 °F 29.95 in North 6.9 mph 6.9 mph 44% 0.00 in
15:11 74.9 °F 51.5 °F 29.95 in NW 9.2 mph 9.2 mph 44% 0.00 in
15:16 74.9 °F 52.1 °F 29.95 in NNW 10.4 mph 10.4 mph 45% 0.00 in
15:21 74.2 °F 52.1 °F 29.95 in NW 3.5 mph 4.7 mph 46% 0.00 in
15:26 73.3 °F 51.8 °F 29.95 in NW 5.8 mph 5.8 mph 47% 0.00 in
15:31 73.3 °F 53.0 °F 29.95 in NW 6.0 mph 6.0 mph 49% 0.00 in
15:36 73.9 °F 53.0 °F 29.95 in NW 11.5 mph 11.5 mph 48% 0.00 in
15:41 74.0 °F 53.6 °F 29.95 in NNW 7.0 mph 7.0 mph 49% 0.00 in
15:46 74.3 °F 53.3 °F 29.96 in NW 5.8 mph 5.8 mph 48% 0.00 in
15:51 74.6 °F 53.6 °F 29.95 in WNW 11.5 mph 11.5 mph 48% 0.00 in
15:56 75.1 °F 52.9 °F 29.95 in WNW 2.3 mph 2.3 mph 46% 0.00 in
16:01 75.6 °F 53.9 °F 29.96 in NW 6.9 mph 6.9 mph 47% 0.00 in
16:06 75.7 °F 54.6 °F 29.95 in North 2.3 mph 2.3 mph 48% 0.00 in
16:11 75.6 °F 53.9 °F 29.95 in North 8.1 mph 8.1 mph 47% 0.00 in
16:16 75.5 °F 52.7 °F 29.95 in North 11.5 mph 11.5 mph 45% 0.00 in
16:21 75.2 °F 52.4 °F 29.95 in North 9.2 mph 9.2 mph 45% 0.00 in
16:26 75.3 °F 53.1 °F 29.95 in North 6.9 mph 6.9 mph 46% 0.00 in
16:31 75.3 °F 53.1 °F 29.95 in NNE 5.8 mph 5.8 mph 46% 0.00 in
16:36 75.3 °F 52.5 °F 29.95 in NNE 8.1 mph 8.1 mph 45% 0.00 in
16:41 74.9 °F 52.1 °F 29.96 in North 5.8 mph 5.8 mph 45% 0.00 in
16:46 74.8 °F 52.6 °F 29.96 in North 4.6 mph 4.6 mph 46% 0.00 in
16:51 74.8 °F 53.2 °F 29.96 in NNW 9.2 mph 9.2 mph 47% 0.00 in
16:56 74.5 °F 52.9 °F 29.96 in NNW 8.1 mph 8.1 mph 47% 0.00 in
17:01 74.6 °F 53.0 °F 29.96 in North 8.1 mph 8.1 mph 47% 0.00 in
17:06 74.6 °F 53.6 °F 29.96 in North 6.9 mph 6.9 mph 48% 0.00 in
17:11 74.2 °F 52.7 °F 29.95 in NW 9.2 mph 9.2 mph 47% 0.00 in
17:16 73.9 °F 53.0 °F 29.95 in WNW 8.0 mph 8.0 mph 48% 0.00 in
17:21 73.7 °F 52.8 °F 29.96 in WNW 4.6 mph 4.6 mph 48% 0.00 in
17:23 73.7 °F 52.8 °F 29.96 in NNW 4.6 mph 4.6 mph 48% 0.00 in
17:28 73.7 °F 52.8 °F 29.96 in NNW 3.5 mph 3.5 mph 48% 0.00 in
17:33 73.7 °F 52.8 °F 29.96 in WNW 6.9 mph 6.9 mph 48% 0.00 in
17:38 73.4 °F 52.5 °F 29.96 in NNW 3.5 mph 3.5 mph 48% 0.00 in
17:43 73.0 °F 52.1 °F 29.96 in NNW 4.6 mph 4.6 mph 48% 0.00 in
17:48 72.9 °F 52.1 °F 29.96 in NNW 4.6 mph 4.6 mph 48% 0.00 in
17:53 72.7 °F 50.7 °F 29.96 in NNW 3.5 mph 3.5 mph 46% 0.00 in
17:58 72.5 °F 51.1 °F 29.97 in NNW 4.6 mph 4.6 mph 47% 0.00 in
18:03 72.2 °F 50.3 °F 29.97 in NNE 8.1 mph 8.1 mph 46% 0.00 in
18:08 71.9 °F 50.6 °F 29.97 in NNW 3.5 mph 3.5 mph 47% 0.00 in
18:13 71.6 °F 50.3 °F 29.97 in NNE 3.5 mph 3.5 mph 47% 0.00 in
18:18 71.3 °F 50.0 °F 29.97 in North 4.0 mph 4.0 mph 47% 0.00 in
18:23 71.1 °F 50.4 °F 29.97 in NNW 3.5 mph 3.5 mph 48% 0.00 in
18:28 70.8 °F 50.7 °F 29.97 in NNW 2.3 mph 2.3 mph 49% 0.00 in
18:33 70.6 °F 51.1 °F 29.97 in North 4.0 mph 4.0 mph 50% 0.00 in
18:38 70.3 °F 50.8 °F 29.97 in NNW 3.5 mph 3.5 mph 50% 0.00 in
18:43 69.9 °F 50.9 °F 29.97 in NNW 3.5 mph 3.5 mph 51% 0.00 in
18:45 69.8 °F 50.9 °F 29.97 in NNW 2.3 mph 2.3 mph 51% 0.00 in
18:50 69.4 °F 51.0 °F 29.98 in NNW 2.3 mph 2.3 mph 52% 0.00 in
18:55 69.2 °F 50.8 °F 29.98 in NNW 1.2 mph 1.2 mph 52% 0.00 in
19:00 68.8 °F 51.0 °F 29.98 in NNW 1.2 mph 1.2 mph 53% 0.00 in
19:05 68.4 °F 51.6 °F 29.98 in Calm     55% 0.00 in
19:10 68.0 °F 51.7 °F 29.98 in Calm     56% 0.00 in
19:15 67.6 °F 51.8 °F 29.98 in Calm     57% 0.00 in
19:20 67.0 °F 52.2 °F 29.98 in Calm     59% 0.00 in
19:25 66.4 °F 51.6 °F 29.98 in Calm     59% 0.00 in
19:30 65.8 °F 52.0 °F 29.98 in Calm     61% 0.00 in
19:35 65.0 °F 51.7 °F 29.98 in Calm     62% 0.00 in
19:38 64.6 °F 51.7 °F 29.99 in Calm     63% 0.00 in
Mechanicsburg,PA USA
Compliments of Weather Underground